Time;durP1;ratioP1;P1;durP2;ratioP2;P2;SDS_P1;SDS_P2;PMS_P1;PMS_P2;Temp;Humidity;BMP_temperature;BMP_pressure;BME280_temperature;BME280_humidity;BME280_pressure;Samples;Min_cycle;Max_cycle;Signal;HPM_P1;HPM_P2
2023/05/26 00:00:01;;;;;;;14.23;8.13;;;;;;;12.01;74.37;96618.22;2098205;28;20052;-62
2023/05/26 00:01:02;;;;;;;15.43;7.47;;;;;;;11.95;74.76;96607.22;2099332;28;20440;-62
2023/05/26 00:02:04;;;;;;;12.65;7.43;;;;;;;12.03;74.47;96621.63;2098900;28;20059;-62
2023/05/26 00:03:06;;;;;;;14.50;7.70;;;;;;;12.05;74.51;96624.97;2098591;28;20511;-62
2023/05/26 00:04:08;;;;;;;16.25;8.15;;;;;;;11.94;74.60;96615.94;2098600;28;20053;-62
2023/05/26 00:05:09;;;;;;;13.80;7.53;;;;;;;11.88;73.78;96606.66;2098911;28;20480;-62
2023/05/26 00:06:11;;;;;;;12.65;7.63;;;;;;;11.91;74.58;96609.13;2098550;28;20048;-62
2023/05/26 00:07:15;;;;;;;15.00;7.72;;;;;;;12.01;74.24;96623.44;2098602;28;20403;-62
2023/05/26 00:08:16;;;;;;;11.00;7.10;;;;;;;11.99;73.98;96619.22;2099284;28;20412;-62
2023/05/26 00:09:17;;;;;;;12.25;7.50;;;;;;;11.97;74.83;96631.44;2098547;28;20049;-61
2023/05/26 00:10:18;;;;;;;11.25;7.28;;;;;;;11.98;73.93;96626.16;2099044;28;20056;-62
2023/05/26 00:11:20;;;;;;;17.92;7.93;;;;;;;11.97;73.92;96627.06;2098989;28;20060;-62
2023/05/26 00:12:22;;;;;;;14.00;8.23;;;;;;;11.96;73.83;96627.16;2099012;28;20045;-62
2023/05/26 00:13:23;;;;;;;18.85;8.52;;;;;;;11.94;74.38;96628.97;2089635;28;20053;-62
2023/05/26 00:14:24;;;;;;;18.08;8.20;;;;;;;11.89;74.99;96621.34;2090160;28;20456;-62
2023/05/26 00:15:25;;;;;;;12.55;7.50;;;;;;;11.89;74.95;96629.16;2099067;28;20476;-61
2023/05/26 00:16:26;;;;;;;13.35;7.88;;;;;;;11.90;75.05;96628.25;2099326;28;20071;-62
2023/05/26 00:17:28;;;;;;;17.20;7.53;;;;;;;11.86;75.25;96629.28;2098626;28;20067;-62
2023/05/26 00:18:29;;;;;;;15.13;8.43;;;;;;;11.84;75.13;96629.34;2098842;28;20377;-62
2023/05/26 00:19:31;;;;;;;16.48;7.88;;;;;;;11.76;75.26;96626.22;2098289;28;20076;-62
2023/05/26 00:20:33;;;;;;;14.30;8.23;;;;;;;11.62;74.90;96608.53;2098402;28;20059;-62
2023/05/26 00:21:38;;;;;;;14.60;7.60;;;;;;;11.67;75.86;96626.56;2090261;28;20053;-62
2023/05/26 00:22:40;;;;;;;13.07;7.88;;;;;;;11.61;76.07;96625.06;2090715;28;20053;-62
2023/05/26 00:23:41;;;;;;;14.38;7.85;;;;;;;11.56;75.97;96623.56;2098340;28;20056;-62
2023/05/26 00:24:42;;;;;;;17.00;7.60;;;;;;;11.52;76.16;96630.66;2098214;28;20067;-62
2023/05/26 00:25:43;;;;;;;13.88;8.20;;;;;;;11.48;76.15;96621.28;2098564;28;20105;-61
2023/05/26 00:26:44;;;;;;;15.65;7.85;;;;;;;11.42;76.56;96627.59;2098223;28;20488;-62
2023/05/26 00:27:45;;;;;;;10.88;7.32;;;;;;;11.37;77.23;96624.31;2098563;28;20472;-62
2023/05/26 00:28:46;;;;;;;13.43;7.93;;;;;;;11.43;76.19;96618.88;2098311;28;20075;-62
2023/05/26 00:29:48;;;;;;;10.50;7.70;;;;;;;11.41;76.94;96627.63;2098346;28;20055;-62
2023/05/26 00:30:49;;;;;;;13.45;7.45;;;;;;;11.39;76.92;96629.47;2098265;28;20063;-62
2023/05/26 00:31:52;;;;;;;15.02;8.27;;;;;;;11.36;76.58;96624.38;2090217;28;20049;-62
2023/05/26 00:32:54;;;;;;;13.15;7.60;;;;;;;11.32;77.00;96625.41;2089833;28;20063;-62
2023/05/26 00:33:55;;;;;;;14.65;8.30;;;;;;;11.27;76.87;96623.84;2098301;28;20059;-61
2023/05/26 00:34:56;;;;;;;13.77;7.82;;;;;;;11.25;76.87;96619.59;2098285;28;20075;-61
2023/05/26 00:35:57;;;;;;;12.75;7.40;;;;;;;11.25;77.20;96628.28;2089449;28;20053;-62
2023/05/26 00:36:59;;;;;;;13.95;8.02;;;;;;;11.21;77.67;96618.88;2089875;28;20044;-62
2023/05/26 00:38:00;;;;;;;11.38;7.43;;;;;;;11.18;77.96;96625.97;2090292;28;20049;-62
2023/05/26 00:39:01;;;;;;;12.85;8.35;;;;;;;11.14;78.13;96614.81;2090202;28;20049;-62
2023/05/26 00:40:02;;;;;;;16.27;7.65;;;;;;;11.23;77.57;96630.09;2098507;28;20056;-62
2023/05/26 00:41:03;;;;;;;12.60;7.47;;;;;;;11.34;76.70;96631.41;2098154;28;20056;-61
2023/05/26 00:42:05;;;;;;;17.02;7.88;;;;;;;11.43;77.15;96625.81;2081291;28;20045;-62
2023/05/26 00:43:06;;;;;;;17.08;8.35;;;;;;;11.49;76.19;96625.56;2081670;28;20056;-61
2023/05/26 00:44:07;;;;;;;16.48;7.28;;;;;;;11.46;76.09;96625.69;2098903;28;20044;-61
2023/05/26 00:45:09;;;;;;;15.20;7.55;;;;;;;11.44;76.58;96622.31;2098169;28;20091;-62
2023/05/26 00:46:10;;;;;;;10.93;7.20;;;;;;;11.50;75.53;96616.88;2098099;28;20048;-62
2023/05/26 00:47:11;;;;;;;11.80;7.40;;;;;;;11.57;75.63;96613.09;2098168;28;20056;-62
2023/05/26 00:48:12;;;;;;;10.98;7.35;;;;;;;11.61;75.26;96621.63;2089751;28;20361;-62
2023/05/26 00:49:13;;;;;;;17.65;7.47;;;;;;;11.63;74.99;96614.63;2089857;28;20068;-62
2023/05/26 00:50:16;;;;;;;14.57;8.20;;;;;;;11.60;74.75;96607.78;2088560;28;20503;-61
2023/05/26 00:51:17;;;;;;;13.20;7.47;;;;;;;11.57;75.15;96612.25;2081161;28;20058;-61
2023/05/26 00:52:18;;;;;;;13.93;7.50;;;;;;;11.56;75.46;96606.22;2073068;28;20446;-61
2023/05/26 00:53:20;;;;;;;14.02;7.47;;;;;;;11.55;75.71;96617.53;2073514;28;20473;-61
2023/05/26 00:54:21;;;;;;;12.85;7.50;;;;;;;11.45;74.88;96601.44;2072860;28;20054;-61
2023/05/26 00:55:23;;;;;;;11.30;6.72;;;;;;;11.48;75.39;96616.09;2081191;28;20058;-62
2023/05/26 00:56:27;;;;;;;16.00;7.60;;;;;;;11.61;75.05;96613.84;2089671;28;20057;-62
2023/05/26 00:57:28;;;;;;;17.17;7.03;;;;;;;11.46;75.06;96595.31;2081411;28;20057;-61
2023/05/26 00:58:29;;;;;;;12.70;6.93;;;;;;;11.51;75.67;96605.56;2082097;28;20041;-62
2023/05/26 00:59:30;;;;;;;13.80;8.07;;;;;;;11.42;75.81;96593.78;2089635;28;20138;-63
2023/05/26 01:00:32;;;;;;;13.10;7.18;;;;;;;11.49;74.95;96604.75;2081808;28;20149;-62
2023/05/26 01:01:33;;;;;;;13.07;7.78;;;;;;;11.50;75.46;96606.47;2081212;28;20087;-62
2023/05/26 01:02:35;;;;;;;11.32;7.57;;;;;;;11.44;75.21;96609.31;2081834;28;20053;-62
2023/05/26 01:03:38;;;;;;;10.50;7.25;;;;;;;11.37;75.87;96608.72;2073900;28;20057;-62
2023/05/26 01:04:40;;;;;;;15.40;7.32;;;;;;;11.36;76.23;96604.44;2081828;28;20046;-61
2023/05/26 01:05:41;;;;;;;11.85;7.55;;;;;;;11.33;76.40;96612.34;2097912;28;20409;-63
2023/05/26 01:06:44;;;;;;;13.02;7.93;;;;;;;11.32;76.11;96615.03;2090027;28;20052;-62
2023/05/26 01:07:48;;;;;;;13.95;7.15;;;;;;;11.30;75.73;96609.03;2082161;28;20067;-62
2023/05/26 01:08:50;;;;;;;12.45;7.57;;;;;;;11.27;75.50;96613.44;2089142;28;20531;-61
2023/05/26 01:09:51;;;;;;;13.55;7.30;;;;;;;11.21;76.13;96611.09;2098052;28;20045;-62
2023/05/26 01:10:52;;;;;;;13.38;7.97;;;;;;;11.19;76.10;96607.69;2098398;28;20051;-62
2023/05/26 01:11:57;;;;;;;15.05;8.10;;;;;;;11.21;76.57;96610.25;2098521;28;20400;-61
2023/05/26 01:13:03;;;;;;;13.65;7.90;;;;;;;11.10;76.44;96596.84;2080974;28;20068;-62
2023/05/26 01:14:15;;;;;;;12.80;7.55;;;;;;;11.15;76.21;96607.91;2066520;28;20054;-62
2023/05/26 01:15:20;;;;;;;15.60;8.68;;;;;;;11.11;76.29;96609.75;2084831;28;20052;-62
2023/05/26 01:16:27;;;;;;;11.45;7.38;;;;;;;10.96;76.53;96589.56;2089153;28;20063;-62
2023/05/26 01:17:33;;;;;;;12.55;7.72;;;;;;;11.03;77.28;96610.06;2073433;28;20046;-61
2023/05/26 01:18:43;;;;;;;13.43;7.43;;;;;;;10.99;76.74;96613.69;2067513;28;20050;-62
2023/05/26 01:19:52;;;;;;;11.63;7.63;;;;;;;10.94;77.21;96613.03;2075662;28;20049;-62
2023/05/26 01:20:57;;;;;;;15.15;8.00;;;;;;;10.94;77.37;96614.78;2090514;28;20053;-62
2023/05/26 01:22:09;;;;;;;12.23;7.93;;;;;;;10.92;77.38;96621.78;2088902;28;20049;-61
2023/05/26 01:23:47;;;;;;;16.00;8.38;;;;;;;10.85;78.09;96615.97;2074592;28;20057;-61
2023/05/26 01:25:00;;;;;;;12.52;7.68;;;;;;;10.89;77.98;96624.50;2093133;28;20043;-62
2023/05/26 01:26:22;;;;;;;14.30;7.38;;;;;;;10.83;78.21;96617.78;2088777;28;20385;-62
2023/05/26 01:27:44;;;;;;;14.75;8.30;;;;;;;10.81;78.40;96617.84;2093595;28;20044;-62
2023/05/26 01:28:45;;;;;;;13.90;8.27;;;;;;;10.75;77.79;96604.25;2088973;28;20052;-61
2023/05/26 01:29:47;;;;;;;18.33;7.65;;;;;;;10.74;77.36;96605.97;2065486;28;20053;-61
2023/05/26 01:30:48;;;;;;;16.08;8.32;;;;;;;10.79;77.62;96619.63;2073790;28;20037;-62
2023/05/26 01:31:50;;;;;;;12.65;7.65;;;;;;;10.76;78.25;96624.97;2089315;28;20053;-62
2023/05/26 01:32:51;;;;;;;14.20;7.65;;;;;;;10.73;77.66;96619.03;2089512;28;20052;-61
2023/05/26 01:33:52;;;;;;;13.05;7.80;;;;;;;10.71;77.78;96616.50;2098108;28;20071;-61
2023/05/26 01:34:53;;;;;;;11.93;8.10;;;;;;;10.75;77.90;96615.47;2089633;28;20681;-62
2023/05/26 01:35:54;;;;;;;15.70;7.75;;;;;;;10.65;78.37;96606.34;2081279;28;20060;-62
2023/05/26 01:36:55;;;;;;;16.05;8.20;;;;;;;10.64;78.68;96609.84;2089004;28;20056;-62
2023/05/26 01:37:56;;;;;;;13.20;7.82;;;;;;;10.70;78.21;96614.81;2089605;28;20496;-62
2023/05/26 01:38:57;;;;;;;15.57;7.88;;;;;;;10.72;78.46;96625.13;2089129;28;20052;-62
2023/05/26 01:39:59;;;;;;;13.43;7.93;;;;;;;10.70;78.19;96616.56;2081200;28;20068;-62
2023/05/26 01:41:04;;;;;;;14.27;7.93;;;;;;;10.70;78.63;96620.00;2064879;28;20046;-62
2023/05/26 01:42:06;;;;;;;14.70;8.20;;;;;;;10.78;77.61;96620.56;2073922;28;20056;-61
2023/05/26 01:43:19;;;;;;;13.15;8.25;;;;;;;10.73;78.22;96614.69;2080763;28;20053;-62
2023/05/26 01:44:29;;;;;;;14.55;8.20;;;;;;;10.72;78.53;96618.22;2082946;28;20442;-61
2023/05/26 01:45:44;;;;;;;12.27;8.00;;;;;;;10.67;77.59;96616.69;2090646;28;20045;-62
2023/05/26 01:46:47;;;;;;;15.85;7.95;;;;;;;10.57;77.62;96611.81;2089806;28;20056;-61
2023/05/26 01:47:49;;;;;;;13.70;7.53;;;;;;;10.65;77.66;96618.50;2089657;28;20041;-62
2023/05/26 01:48:50;;;;;;;13.85;7.68;;;;;;;10.59;78.38;96623.00;2088688;28;20102;-61
2023/05/26 01:49:51;;;;;;;15.43;7.95;;;;;;;10.57;78.12;96624.81;2080822;28;20049;-62
2023/05/26 01:50:56;;;;;;;11.93;7.50;;;;;;;10.50;78.72;96620.72;2072215;28;20094;-61
2023/05/26 01:52:01;;;;;;;11.55;7.82;;;;;;;10.47;78.46;96633.00;2065017;28;20517;-62
2023/05/26 01:53:08;;;;;;;15.95;8.32;;;;;;;10.44;78.95;96622.72;2066054;28;20050;-62
2023/05/26 01:54:09;;;;;;;14.18;8.30;;;;;;;10.33;79.23;96613.56;2075198;28;20057;-61
2023/05/26 01:55:14;;;;;;;15.88;8.38;;;;;;;10.38;79.84;96624.63;2080665;28;20053;-62
2023/05/26 01:56:15;;;;;;;11.70;7.65;;;;;;;10.33;79.15;96616.16;2073931;28;20512;-61
2023/05/26 01:57:18;;;;;;;17.05;8.35;;;;;;;10.31;79.36;96619.72;2073169;28;20053;-62
2023/05/26 01:58:19;;;;;;;12.10;7.75;;;;;;;10.34;79.02;96623.06;2072614;28;20075;-61
2023/05/26 01:59:20;;;;;;;14.40;7.75;;;;;;;10.25;79.34;96607.78;2080952;28;20053;-61
2023/05/26 02:00:25;;;;;;;16.13;8.38;;;;;;;10.25;79.11;96623.34;2080441;28;20485;-61
2023/05/26 02:01:26;;;;;;;13.35;8.35;;;;;;;10.17;79.54;96617.59;2089211;28;20134;-61
2023/05/26 02:02:27;;;;;;;14.13;7.95;;;;;;;10.25;79.40;96622.50;2088442;28;20064;-58
2023/05/26 02:03:29;;;;;;;15.60;7.93;;;;;;;10.25;80.33;96625.09;2088946;28;20056;-57
2023/05/26 02:04:30;;;;;;;14.27;8.40;;;;;;;10.26;80.46;96624.19;2088653;28;20085;-57
2023/05/26 02:05:31;;;;;;;12.57;7.88;;;;;;;10.36;79.53;96623.00;2089525;28;20056;-57
2023/05/26 02:06:32;;;;;;;14.82;8.50;;;;;;;10.38;78.78;96623.78;2081158;28;20072;-58
2023/05/26 02:07:34;;;;;;;15.57;8.20;;;;;;;10.37;79.51;96628.16;2088506;28;20488;-57
2023/05/26 02:08:36;;;;;;;13.13;7.93;;;;;;;10.41;78.72;96620.25;2089215;28;20060;-58
2023/05/26 02:09:37;;;;;;;12.23;8.13;;;;;;;10.45;78.88;96624.41;2088800;28;20064;-58
2023/05/26 02:10:38;;;;;;;13.85;8.02;;;;;;;10.38;78.43;96616.84;2088547;28;20049;-57
2023/05/26 02:11:40;;;;;;;14.95;8.10;;;;;;;10.42;78.91;96619.31;2080786;28;20053;-57
2023/05/26 02:12:41;;;;;;;14.05;7.90;;;;;;;10.40;78.25;96626.31;2080273;28;20057;-58
2023/05/26 02:13:43;;;;;;;11.20;7.85;;;;;;;10.43;78.59;96628.84;2088870;28;20052;-57
2023/05/26 02:14:44;;;;;;;13.30;8.40;;;;;;;10.51;78.11;96621.59;2097470;28;20079;-58
2023/05/26 02:15:49;;;;;;;12.85;7.43;;;;;;;10.56;77.40;96623.13;2097528;28;20068;-58
2023/05/26 02:16:50;;;;;;;12.48;8.18;;;;;;;10.52;78.18;96620.69;2089337;28;20504;-58
2023/05/26 02:17:54;;;;;;;13.07;8.00;;;;;;;10.45;78.11;96625.28;2080623;28;20053;-58
2023/05/26 02:18:56;;;;;;;16.38;8.23;;;;;;;10.49;77.95;96623.41;2089417;28;20040;-58
2023/05/26 02:19:58;;;;;;;11.88;7.97;;;;;;;10.43;77.28;96619.28;2080501;28;20052;-58
2023/05/26 02:20:59;;;;;;;14.48;8.43;;;;;;;10.43;77.97;96623.63;2080470;28;20424;-57
2023/05/26 02:22:01;;;;;;;15.32;8.05;;;;;;;10.42;77.72;96609.78;2080778;28;20452;-58
2023/05/26 02:23:02;;;;;;;15.35;7.53;;;;;;;10.44;77.30;96623.56;2088559;28;20071;-58
2023/05/26 02:24:03;;;;;;;12.98;8.80;;;;;;;10.41;77.51;96625.44;2097484;28;20055;-57
2023/05/26 02:25:04;;;;;;;13.10;8.32;;;;;;;10.42;77.96;96608.94;2088993;28;20476;-58
2023/05/26 02:26:05;;;;;;;14.45;8.32;;;;;;;10.44;77.81;96618.38;2089142;28;20037;-57
2023/05/26 02:27:08;;;;;;;12.52;8.40;;;;;;;10.38;77.35;96618.59;2089507;28;20373;-58
2023/05/26 02:28:09;;;;;;;13.48;8.30;;;;;;;10.35;77.95;96623.91;2089671;28;20045;-58
2023/05/26 02:29:12;;;;;;;12.57;8.18;;;;;;;10.30;78.04;96624.06;2088999;28;20059;-58
2023/05/26 02:30:14;;;;;;;13.73;8.93;;;;;;;10.25;78.50;96619.91;2080583;28;20061;-58
2023/05/26 02:31:15;;;;;;;13.98;7.93;;;;;;;10.26;78.01;96621.59;2080471;28;20050;-58
2023/05/26 02:32:16;;;;;;;14.23;8.93;;;;;;;10.22;78.67;96613.09;2081021;28;20049;-58
2023/05/26 02:33:17;;;;;;;11.98;7.93;;;;;;;10.19;78.81;96617.56;2089228;28;20063;-58
2023/05/26 02:34:18;;;;;;;13.65;8.38;;;;;;;10.16;78.66;96614.16;2088948;28;20183;-58
2023/05/26 02:35:19;;;;;;;13.57;8.32;;;;;;;10.10;78.51;96614.38;2088447;28;20057;-58
2023/05/26 02:36:20;;;;;;;14.68;8.50;;;;;;;10.07;78.50;96611.03;2088641;28;20059;-58
2023/05/26 02:37:22;;;;;;;15.63;8.75;;;;;;;10.09;79.48;96609.25;2089256;28;20464;-58
2023/05/26 02:38:23;;;;;;;14.02;8.10;;;;;;;10.07;79.08;96608.44;2089026;28;20052;-58
2023/05/26 02:39:24;;;;;;;18.45;7.95;;;;;;;10.05;78.70;96610.22;2089896;28;20479;-58
2023/05/26 02:40:25;;;;;;;14.50;8.38;;;;;;;10.10;79.05;96616.09;2089167;28;20059;-58
2023/05/26 02:41:27;;;;;;;16.73;8.18;;;;;;;10.08;79.70;96612.75;2080639;28;20516;-58
2023/05/26 02:42:28;;;;;;;17.65;9.20;;;;;;;10.00;79.35;96612.16;2088561;28;20049;-58
2023/05/26 02:43:29;;;;;;;17.02;8.68;;;;;;;9.96;79.83;96615.75;2089753;28;20087;-58
2023/05/26 02:44:30;;;;;;;17.88;9.02;;;;;;;9.91;79.67;96616.75;2089371;28;20063;-58
2023/05/26 02:45:31;;;;;;;13.88;8.38;;;;;;;9.87;80.21;96617.78;2089297;28;20056;-58
2023/05/26 02:46:32;;;;;;;12.32;7.90;;;;;;;9.83;79.75;96610.13;2089642;28;20102;-57
2023/05/26 02:47:34;;;;;;;15.95;9.07;;;;;;;9.84;79.75;96615.28;2089430;28;20076;-58
2023/05/26 02:48:35;;;;;;;13.30;8.80;;;;;;;9.84;79.91;96615.28;2088576;28;20057;-57
2023/05/26 02:49:36;;;;;;;17.10;8.77;;;;;;;9.71;80.50;96601.03;2081035;28;20073;-58
2023/05/26 02:50:38;;;;;;;12.45;8.90;;;;;;;9.85;80.64;96618.72;2080166;28;20414;-58
2023/05/26 02:51:39;;;;;;;16.40;8.73;;;;;;;9.87;80.58;96622.97;2088429;28;20061;-58
2023/05/26 02:52:40;;;;;;;15.60;8.82;;;;;;;9.90;80.02;96622.84;2089834;28;20061;-58
2023/05/26 02:53:41;;;;;;;14.98;8.18;;;;;;;9.93;79.93;96612.34;2089581;28;20049;-57
2023/05/26 02:54:42;;;;;;;15.75;8.35;;;;;;;9.98;79.55;96626.94;2088917;28;20075;-58
2023/05/26 02:55:44;;;;;;;14.02;8.70;;;;;;;9.97;79.66;96631.28;2080702;28;20068;-57
2023/05/26 02:56:45;;;;;;;13.23;8.18;;;;;;;9.96;79.48;96624.38;2080522;28;20378;-58
2023/05/26 02:57:46;;;;;;;15.77;8.55;;;;;;;9.96;79.68;96629.56;2089055;28;20060;-58
2023/05/26 02:58:47;;;;;;;14.05;8.68;;;;;;;9.93;79.14;96627.94;2089286;28;20048;-58
2023/05/26 02:59:48;;;;;;;13.95;8.60;;;;;;;9.89;79.67;96628.06;2080510;28;20049;-57
2023/05/26 03:00:50;;;;;;;17.92;8.30;;;;;;;9.87;79.50;96630.75;2088587;28;20049;-58
2023/05/26 03:01:51;;;;;;;18.88;9.73;;;;;;;9.87;79.94;96635.09;2089710;28;20048;-57
2023/05/26 03:02:52;;;;;;;14.10;8.45;;;;;;;9.84;79.86;96636.03;2080721;28;20041;-61
2023/05/26 03:03:53;;;;;;;14.10;8.77;;;;;;;9.82;79.96;96635.25;2080470;28;20045;-61
2023/05/26 03:04:55;;;;;;;16.13;8.38;;;;;;;9.79;79.60;96629.31;2080552;28;20069;-61
2023/05/26 03:05:58;;;;;;;17.02;9.02;;;;;;;9.78;80.26;96633.63;2079843;28;20423;-61
2023/05/26 03:07:01;;;;;;;13.00;8.23;;;;;;;9.73;80.23;96625.19;2080877;28;20037;-61
2023/05/26 03:08:06;;;;;;;11.85;8.10;;;;;;;9.71;79.80;96639.94;2081384;28;20084;-62
2023/05/26 03:09:07;;;;;;;14.25;8.73;;;;;;;9.71;80.41;96638.19;2080109;28;20409;-62
2023/05/26 03:10:09;;;;;;;14.30;8.57;;;;;;;9.74;79.90;96637.25;2080252;28;20100;-61
2023/05/26 03:11:10;;;;;;;11.30;7.50;;;;;;;9.74;80.33;96636.41;2088653;28;20056;-62
2023/05/26 03:12:15;;;;;;;16.27;8.70;;;;;;;9.77;79.83;96631.94;2088307;28;20064;-61
2023/05/26 03:13:16;;;;;;;17.50;9.07;;;;;;;9.78;80.12;96633.63;2082041;28;20425;-61
2023/05/26 03:14:18;;;;;;;17.45;8.65;;;;;;;9.76;79.84;96630.25;2082323;28;20057;-61
2023/05/26 03:15:19;;;;;;;15.40;8.57;;;;;;;9.88;79.45;96636.78;2081702;28;20061;-62
2023/05/26 03:16:20;;;;;;;12.13;8.20;;;;;;;9.87;79.17;96628.16;2082309;28;20448;-62
2023/05/26 03:17:23;;;;;;;13.70;9.13;;;;;;;9.84;79.85;96633.44;2089999;28;20057;-61
2023/05/26 03:18:24;;;;;;;14.25;8.30;;;;;;;9.78;79.62;96632.78;2089912;28;20107;-61
2023/05/26 03:19:26;;;;;;;15.88;8.95;;;;;;;9.78;79.48;96637.97;2089954;28;20063;-61
2023/05/26 03:20:27;;;;;;;20.80;8.60;;;;;;;9.65;80.00;96612.47;2090891;28;20041;-62
2023/05/26 03:21:28;;;;;;;16.65;9.15;;;;;;;9.71;79.50;96626.97;2081790;28;20057;-61
2023/05/26 03:22:29;;;;;;;13.55;8.00;;;;;;;9.70;79.42;96620.06;2090006;28;20432;-61
2023/05/26 03:23:30;;;;;;;12.13;8.32;;;;;;;9.75;79.65;96628.56;2091225;28;20060;-61
2023/05/26 03:24:32;;;;;;;16.67;9.40;;;;;;;9.76;79.47;96622.47;2090199;28;20088;-61
2023/05/26 03:25:33;;;;;;;15.77;8.65;;;;;;;9.80;79.11;96631.84;2082328;28;20058;-61
2023/05/26 03:26:34;;;;;;;16.48;8.77;;;;;;;9.87;78.68;96620.38;2090433;28;20500;-61
2023/05/26 03:27:37;;;;;;;15.38;9.23;;;;;;;9.84;78.66;96628.25;2090063;28;20172;-61
2023/05/26 03:28:39;;;;;;;13.82;8.20;;;;;;;9.82;79.49;96622.25;2089927;28;20052;-61
2023/05/26 03:29:40;;;;;;;15.48;8.95;;;;;;;9.87;78.85;96635.09;2089791;28;20057;-61
2023/05/26 03:30:43;;;;;;;16.45;9.18;;;;;;;9.85;78.87;96629.94;2082559;28;20482;-61
2023/05/26 03:31:44;;;;;;;19.52;9.07;;;;;;;9.81;79.19;96628.38;2081654;28;20140;-61
2023/05/26 03:32:45;;;;;;;15.75;9.05;;;;;;;9.82;79.16;96624.84;2081838;28;20054;-62
2023/05/26 03:33:47;;;;;;;15.90;8.25;;;;;;;9.84;79.39;96630.84;2089390;28;20131;-62
2023/05/26 03:34:48;;;;;;;15.57;8.98;;;;;;;9.88;79.18;96631.59;2081753;28;20059;-62
2023/05/26 03:35:50;;;;;;;15.98;8.73;;;;;;;9.83;79.08;96634.31;2082047;28;20052;-62
2023/05/26 03:36:52;;;;;;;17.35;7.90;;;;;;;9.77;79.10;96620.72;2089787;28;20049;-62
2023/05/26 03:37:58;;;;;;;12.75;7.78;;;;;;;9.87;78.99;96638.53;2083243;28;20037;-62
2023/05/26 03:39:00;;;;;;;15.80;8.77;;;;;;;9.87;78.69;96645.47;2082268;28;20050;-62
2023/05/26 03:40:01;;;;;;;15.82;8.70;;;;;;;9.83;79.09;96642.09;2081469;28;20463;-62
2023/05/26 03:41:05;;;;;;;13.27;8.05;;;;;;;9.84;79.18;96640.38;2082758;28;20147;-62
2023/05/26 03:42:08;;;;;;;14.70;8.68;;;;;;;9.81;78.73;96635.28;2082494;28;20053;-62
2023/05/26 03:43:09;;;;;;;13.25;8.77;;;;;;;9.79;79.05;96650.06;2074270;28;20072;-71
2023/05/26 03:44:21;;;;;;;14.85;8.52;;;;;;;9.75;79.15;96646.72;2076793;28;20425;-71
2023/05/26 03:45:22;;;;;;;13.60;8.25;;;;;;;9.73;79.55;96645.94;2082073;28;20053;-71
2023/05/26 03:46:23;;;;;;;15.00;9.35;;;;;;;9.76;79.00;96643.22;2082142;28;20417;-70
2023/05/26 03:47:24;;;;;;;15.23;7.95;;;;;;;9.78;78.91;96649.19;2090223;28;20049;-71
2023/05/26 03:48:26;;;;;;;15.38;9.18;;;;;;;9.79;78.55;96648.31;2089622;28;20061;-71
2023/05/26 03:49:29;;;;;;;15.57;8.48;;;;;;;9.74;78.36;96646.78;2081849;28;20056;-71
2023/05/26 03:50:31;;;;;;;18.67;9.43;;;;;;;9.74;78.87;96649.38;2089893;28;20053;-70
2023/05/26 03:51:33;;;;;;;14.15;8.27;;;;;;;9.72;79.09;96647.66;2090233;28;20048;-71
2023/05/26 03:52:35;;;;;;;16.17;8.98;;;;;;;9.70;79.60;96652.06;2082019;28;20184;-71
2023/05/26 03:53:37;;;;;;;13.90;8.90;;;;;;;9.66;79.35;96650.47;2074524;28;20068;-71
2023/05/26 03:54:38;;;;;;;15.98;9.07;;;;;;;9.68;79.92;96655.63;2073878;28;20060;-70
2023/05/26 03:55:40;;;;;;;14.77;8.45;;;;;;;9.71;79.70;96650.31;2074056;28;20049;-71
2023/05/26 03:56:41;;;;;;;16.48;8.52;;;;;;;9.78;78.75;96648.34;2082034;28;20053;-71
2023/05/26 03:57:42;;;;;;;17.40;8.85;;;;;;;9.79;78.63;96656.09;2090154;28;20444;-71
2023/05/26 03:58:44;;;;;;;14.02;9.18;;;;;;;9.79;78.75;96658.69;2089744;28;20075;-71
2023/05/26 03:59:45;;;;;;;19.02;8.77;;;;;;;9.78;78.89;96658.72;2082110;28;20467;-70
2023/05/26 04:00:46;;;;;;;16.35;8.55;;;;;;;9.80;79.05;96660.38;2081588;28;20064;-71
2023/05/26 04:01:48;;;;;;;12.73;8.00;;;;;;;9.77;78.99;96647.50;2073567;28;20054;-71
2023/05/26 04:02:49;;;;;;;14.32;8.88;;;;;;;9.87;79.03;96656.69;2073853;28;20038;-59
2023/05/26 04:03:51;;;;;;;17.30;9.40;;;;;;;9.90;78.57;96658.31;2073922;28;20046;-61
2023/05/26 04:04:53;;;;;;;15.05;8.68;;;;;;;9.86;78.21;96657.59;2073929;28;20045;-59
2023/05/26 04:05:55;;;;;;;16.52;8.98;;;;;;;9.88;78.75;96658.38;2082130;28;20425;-60
2023/05/26 04:06:57;;;;;;;14.80;8.70;;;;;;;9.92;78.40;96657.38;2090042;28;20156;-59
2023/05/26 04:07:58;;;;;;;14.38;9.00;;;;;;;9.92;78.57;96665.16;2082078;28;20535;-58
2023/05/26 04:09:00;;;;;;;16.33;9.15;;;;;;;9.93;78.52;96663.41;2081087;28;20064;-58
2023/05/26 04:10:01;;;;;;;14.57;8.35;;;;;;;9.93;79.13;96655.63;2081664;28;20045;-58
2023/05/26 04:11:02;;;;;;;14.65;9.25;;;;;;;9.92;78.63;96661.72;2090116;28;20044;-58
2023/05/26 04:12:05;;;;;;;17.67;9.88;;;;;;;9.96;78.85;96654.66;2089568;28;20045;-58
2023/05/26 04:13:06;;;;;;;14.88;8.73;;;;;;;9.97;78.97;96658.94;2081295;28;20045;-58
2023/05/26 04:14:07;;;;;;;16.70;10.30;;;;;;;10.01;79.10;96650.19;2090146;28;20045;-58
2023/05/26 04:15:09;;;;;;;14.73;8.77;;;;;;;10.00;79.38;96657.13;2089990;28;20056;-58
2023/05/26 04:16:10;;;;;;;14.57;9.15;;;;;;;10.05;79.04;96652.63;2081762;28;20053;-58
2023/05/26 04:17:11;;;;;;;16.65;8.60;;;;;;;10.08;78.59;96651.66;2090336;28;20468;-58
2023/05/26 04:18:13;;;;;;;18.13;9.18;;;;;;;10.13;78.71;96655.78;2089582;28;20112;-71
2023/05/26 04:19:14;;;;;;;16.25;9.23;;;;;;;10.06;77.80;96635.28;2090198;28;20045;-70
2023/05/26 04:20:15;;;;;;;18.70;8.40;;;;;;;10.18;78.01;96660.81;2089910;28;20412;-71
2023/05/26 04:21:16;;;;;;;14.00;8.68;;;;;;;10.20;78.35;96656.41;2089377;28;20057;-70
2023/05/26 04:22:18;;;;;;;15.15;8.75;;;;;;;10.23;77.81;96658.91;2090758;28;20040;-71
2023/05/26 04:23:19;;;;;;;14.73;8.48;;;;;;;10.28;77.70;96659.63;2089430;28;20045;-71
2023/05/26 04:24:20;;;;;;;16.50;8.45;;;;;;;10.29;77.18;96661.31;2089546;28;20439;-69
2023/05/26 04:25:24;;;;;;;16.33;8.93;;;;;;;10.34;77.13;96659.41;2088868;28;20048;-71
2023/05/26 04:26:33;;;;;;;15.95;8.02;;;;;;;10.40;76.86;96662.66;2083084;28;20049;-71
2023/05/26 04:28:07;;;;;;;13.77;8.25;;;;;;;10.42;76.21;96666.91;2085577;28;20071;-71
2023/05/26 04:29:40;;;;;;;16.83;8.48;;;;;;;10.45;75.93;96660.75;2080659;28;20053;-71
2023/05/26 04:30:52;;;;;;;17.20;9.27;;;;;;;10.53;75.15;96656.13;2089579;28;20053;-71
2023/05/26 04:31:58;;;;;;;12.38;7.80;;;;;;;10.54;75.09;96661.28;2089576;28;20049;-71
2023/05/26 04:33:20;;;;;;;12.20;8.20;;;;;;;10.59;75.75;96663.72;2090677;28;20048;-71
2023/05/26 04:34:48;;;;;;;;;;;;;;;10.65;75.40;96662.66;2089170;28;20061;-71
2023/05/26 04:35:51;;;;;;;17.60;7.93;;;;;;;10.67;74.02;96661.69;2090490;28;19916;-70
2023/05/26 04:36:53;;;;;;;16.55;7.85;;;;;;;10.70;74.04;96664.16;2089969;28;20085;-71
2023/05/26 04:37:54;;;;;;;15.32;8.00;;;;;;;10.76;73.75;96666.53;2089600;28;20053;-71
2023/05/26 04:38:57;;;;;;;10.80;7.60;;;;;;;10.74;73.58;96651.91;2090347;28;20061;-70
2023/05/26 04:39:58;;;;;;;13.65;7.47;;;;;;;10.84;73.71;96665.41;2089223;28;20509;-71
2023/05/26 04:41:00;;;;;;;13.50;7.43;;;;;;;10.88;74.38;96662.63;2081602;28;20053;-71
2023/05/26 04:42:03;;;;;;;13.45;7.35;;;;;;;10.91;74.03;96661.69;2081142;28;20054;-71
2023/05/26 04:43:04;;;;;;;16.13;8.38;;;;;;;10.95;73.58;96665.84;2081350;28;20042;-71
2023/05/26 04:44:05;;;;;;;13.48;8.05;;;;;;;10.96;74.18;96659.72;2081939;28;20045;-71
2023/05/26 04:45:08;;;;;;;15.80;8.32;;;;;;;10.99;73.79;96657.88;2089738;28;20033;-70
2023/05/26 04:46:13;;;;;;;14.95;8.73;;;;;;;10.94;74.00;96649.41;2090023;28;20045;-71
2023/05/26 04:47:16;;;;;;;13.10;7.55;;;;;;;11.02;73.96;96657.75;2089430;28;20084;-71
2023/05/26 04:48:17;;;;;;;16.85;8.10;;;;;;;11.10;74.11;96667.84;2089337;28;20464;-71
2023/05/26 04:49:22;;;;;;;14.88;7.80;;;;;;;11.12;73.49;96659.97;2080974;28;20076;-71
2023/05/26 04:50:24;;;;;;;15.90;7.78;;;;;;;11.11;73.59;96655.69;2089726;28;20057;-71
2023/05/26 04:51:25;;;;;;;14.95;7.82;;;;;;;11.15;73.08;96659.91;2089854;28;20056;-71
2023/05/26 04:52:26;;;;;;;17.20;8.00;;;;;;;11.20;72.70;96665.72;2081533;28;20096;-71
2023/05/26 04:53:27;;;;;;;12.90;7.32;;;;;;;11.24;73.41;96668.16;2081483;28;20053;-71